Time;durP1;ratioP1;P1;durP2;ratioP2;P2;SDS_P1;SDS_P2;PMS_P1;PMS_P2;Temp;Humidity;BMP_temperature;BMP_pressure;BME280_temperature;BME280_humidity;BME280_pressure;Samples;Min_cycle;Max_cycle;Signal;HPM_P1;HPM_P2
2024/01/24 00:00:18;;;;;;;3.35;0.88;;;9.60;96.80;;;;;;4984591;28;20029;-77
2024/01/24 00:03:12;;;;;;;4.55;0.77;;;9.60;96.90;;;;;;4984140;28;20023;-78
2024/01/24 00:05:38;;;;;;;3.15;0.90;;;9.60;96.90;;;;;;4961346;28;20049;-77
2024/01/24 00:08:07;;;;;;;6.47;0.65;;;9.60;96.80;;;;;;4967267;28;20038;-77
2024/01/24 00:10:33;;;;;;;4.13;0.65;;;9.70;96.90;;;;;;4983679;28;20019;-79
2024/01/24 00:13:02;;;;;;;6.78;1.00;;;9.70;97.10;;;;;;4985407;28;20030;-77
2024/01/24 00:15:31;;;;;;;5.28;0.63;;;9.70;97.00;;;;;;4984885;28;20057;-79
2024/01/24 00:17:56;;;;;;;4.50;1.10;;;9.70;97.30;;;;;;4985064;28;20245;-77
2024/01/24 00:20:54;;;;;;;5.10;0.70;;;9.80;97.00;;;;;;4963924;28;20125;-77
2024/01/24 00:23:20;;;;;;;;;;;9.80;97.00;;;;;;4980299;28;20309;-78
2024/01/24 00:25:46;;;;;;;4.72;0.70;;;9.90;96.90;;;;;;4982016;28;19949;-78
2024/01/24 00:28:35;;;;;;;5.63;0.85;;;10.00;96.70;;;;;;4982097;28;20377;-76
2024/01/24 00:31:01;;;;;;;4.07;0.80;;;10.10;96.60;;;;;;4983861;28;20058;-78
2024/01/24 00:33:29;;;;;;;4.50;0.80;;;10.20;96.40;;;;;;4966015;28;20035;-78
2024/01/24 00:35:57;;;;;;;6.70;0.93;;;10.20;96.30;;;;;;4966943;28;20221;-78
2024/01/24 00:38:23;;;;;;;6.13;0.93;;;10.30;96.30;;;;;;4966571;28;20034;-78
2024/01/24 00:40:49;;;;;;;5.47;1.00;;;10.30;96.20;;;;;;4965525;28;20043;-77
2024/01/24 00:43:14;;;;;;;8.13;1.02;;;10.30;96.10;;;;;;4966451;28;20066;-77
2024/01/24 00:45:40;;;;;;;6.65;1.38;;;10.30;96.20;;;;;;4965934;28;20084;-81
2024/01/24 00:48:07;;;;;;;2.60;0.50;;;10.30;96.30;;;;;;4966260;28;20023;-80
2024/01/24 00:50:34;;;;;;;6.55;1.00;;;10.40;96.20;;;;;;4982240;28;20025;-79
2024/01/24 00:53:04;;;;;;;5.63;0.93;;;10.40;96.10;;;;;;4950623;28;20212;-77
2024/01/24 00:55:30;;;;;;;3.70;0.88;;;10.40;96.20;;;;;;4983101;28;20351;-77
2024/01/24 00:57:58;;;;;;;3.78;0.60;;;10.30;96.50;;;;;;4983894;28;20042;-76
2024/01/24 01:00:24;;;;;;;5.55;0.98;;;10.30;96.50;;;;;;4966451;28;20039;-78
2024/01/24 01:02:50;;;;;;;5.78;0.70;;;10.30;96.30;;;;;;4966083;28;20320;-77
2024/01/24 01:05:16;;;;;;;4.43;1.00;;;10.40;96.40;;;;;;4983381;28;20092;-77
2024/01/24 01:07:42;;;;;;;4.40;0.82;;;10.40;96.20;;;;;;4945903;29;20102;-77
2024/01/24 01:10:08;;;;;;;4.28;0.90;;;10.40;96.30;;;;;;4947168;29;20046;-77
2024/01/24 01:12:34;;;;;;;4.97;1.10;;;10.30;96.70;;;;;;4963516;29;20019;-79
2024/01/24 01:15:00;;;;;;;6.05;0.90;;;10.30;96.70;;;;;;4963028;29;20062;-77
2024/01/24 01:17:29;;;;;;;3.72;0.60;;;10.30;96.90;;;;;;4964050;29;20030;-76
2024/01/24 01:19:55;;;;;;;5.15;0.80;;;10.30;96.80;;;;;;4963849;29;20023;-78
2024/01/24 01:22:21;;;;;;;4.38;0.75;;;10.30;96.50;;;;;;4962761;29;20042;-77
2024/01/24 01:24:46;;;;;;;5.50;2.13;;;10.40;96.40;;;;;;4963683;29;20027;-77
2024/01/24 01:27:12;;;;;;;6.03;1.10;;;10.40;96.40;;;;;;4956479;28;20027;-78
2024/01/24 01:29:37;;;;;;;5.30;1.25;;;10.40;96.30;;;;;;4983695;28;20253;-76
2024/01/24 01:32:12;;;;;;;4.40;1.40;;;10.50;96.30;;;;;;4987078;28;20053;-78
2024/01/24 01:34:37;;;;;;;3.33;0.70;;;10.50;96.20;;;;;;4969516;28;20085;-78
2024/01/24 01:37:03;;;;;;;6.43;0.98;;;10.60;96.20;;;;;;4953865;28;20031;-77
2024/01/24 01:39:29;;;;;;;1.80;0.50;;;10.50;96.60;;;;;;4968957;28;20098;-78
2024/01/24 01:41:55;;;;;;;3.17;0.77;;;10.50;96.40;;;;;;4970288;28;20397;-78
2024/01/24 01:44:21;;;;;;;5.05;0.93;;;10.50;96.40;;;;;;4953293;28;20178;-80
2024/01/24 01:46:48;;;;;;;4.13;0.60;;;10.40;96.50;;;;;;4969265;28;20022;-79
2024/01/24 01:49:13;;;;;;;3.10;0.70;;;10.40;96.60;;;;;;4953427;28;20022;-78
2024/01/24 01:51:40;;;;;;;6.47;0.82;;;10.30;96.70;;;;;;4969034;28;20217;-76
2024/01/24 01:54:08;;;;;;;2.92;0.50;;;10.40;96.70;;;;;;4969732;28;20023;-77
2024/01/24 01:56:35;;;;;;;3.75;0.95;;;10.30;96.80;;;;;;4968884;28;20347;-79
2024/01/24 01:59:01;;;;;;;4.40;0.75;;;10.30;96.90;;;;;;4986526;28;20298;-80
2024/01/24 02:01:29;;;;;;;4.80;0.77;;;10.30;96.90;;;;;;4968744;28;20022;-76
2024/01/24 02:03:55;;;;;;;;;;;10.30;97.10;;;;;;4969672;28;20031;-78
2024/01/24 02:06:22;;;;;;;4.68;0.70;;;10.50;96.90;;;;;;4953115;28;19933;-77
2024/01/24 02:08:48;;;;;;;3.90;0.70;;;10.50;96.70;;;;;;4952443;28;20059;-79
2024/01/24 02:11:17;;;;;;;6.30;0.70;;;10.50;96.70;;;;;;4969220;28;20206;-77
2024/01/24 02:13:43;;;;;;;5.88;0.80;;;10.40;96.70;;;;;;4985777;28;20035;-77
2024/01/24 02:16:15;;;;;;;5.15;0.80;;;10.50;96.70;;;;;;4952954;28;20102;-76
2024/01/24 02:18:41;;;;;;;2.58;0.60;;;10.40;96.70;;;;;;4952484;28;20034;-80
2024/01/24 02:21:07;;;;;;;4.60;0.95;;;10.50;96.70;;;;;;4949755;28;20058;-77
2024/01/24 02:23:33;;;;;;;3.67;0.65;;;10.40;96.90;;;;;;4968126;28;20113;-76
2024/01/24 02:25:59;;;;;;;4.35;0.60;;;10.40;96.90;;;;;;4985889;28;20237;-77
2024/01/24 02:28:25;;;;;;;2.75;0.57;;;10.40;96.90;;;;;;4952604;28;20119;-79
2024/01/24 02:30:51;;;;;;;4.43;0.75;;;10.50;96.80;;;;;;4985142;28;20313;-79
2024/01/24 02:33:16;;;;;;;4.05;0.63;;;10.40;96.90;;;;;;4985748;28;20031;-77
2024/01/24 02:35:42;;;;;;;6.40;1.17;;;10.50;96.90;;;;;;4967836;28;20084;-77
2024/01/24 02:38:08;;;;;;;2.78;0.55;;;10.40;96.90;;;;;;4951943;28;20026;-78
2024/01/24 02:40:34;;;;;;;2.85;0.60;;;10.50;97.00;;;;;;4967640;28;20047;-78
2024/01/24 02:43:00;;;;;;;4.28;0.80;;;10.50;96.90;;;;;;4985645;28;20037;-76
2024/01/24 02:45:25;;;;;;;3.30;0.85;;;10.60;97.00;;;;;;4968243;28;20054;-78
2024/01/24 02:48:02;;;;;;;4.18;0.70;;;10.60;97.10;;;;;;4967963;28;20027;-78
2024/01/24 02:50:33;;;;;;;2.03;0.50;;;10.50;97.20;;;;;;4968027;28;20055;-77
2024/01/24 02:53:02;;;;;;;3.97;0.52;;;10.60;97.30;;;;;;4982097;28;20054;-76
2024/01/24 02:55:34;;;;;;;3.28;0.40;;;10.60;97.30;;;;;;4968148;28;20047;-77
2024/01/24 02:58:03;;;;;;;3.33;0.50;;;10.60;97.40;;;;;;4985543;28;20317;-76
2024/01/24 03:00:37;;;;;;;3.67;0.60;;;10.60;97.40;;;;;;4984982;28;20058;-76
2024/01/24 03:03:03;;;;;;;2.70;0.50;;;10.70;97.40;;;;;;4968307;28;20054;-78
2024/01/24 03:05:32;;;;;;;3.80;0.63;;;10.80;97.50;;;;;;4951713;28;20098;-76
2024/01/24 03:08:06;;;;;;;3.10;0.40;;;10.70;97.50;;;;;;4952758;28;20019;-79
2024/01/24 03:10:31;;;;;;;3.35;0.52;;;10.70;97.80;;;;;;4983704;28;20034;-78
2024/01/24 03:12:57;;;;;;;3.38;0.38;;;10.70;97.80;;;;;;4952026;28;20037;-80
2024/01/24 03:15:34;;;;;;;3.42;0.57;;;10.70;97.80;;;;;;4952326;28;20049;-79
2024/01/24 03:18:02;;;;;;;3.35;0.45;;;10.80;97.90;;;;;;4985233;28;20030;-78
2024/01/24 03:20:32;;;;;;;3.83;0.60;;;10.80;97.90;;;;;;4967437;28;20062;-77
2024/01/24 03:22:58;;;;;;;3.78;0.60;;;10.80;97.90;;;;;;4952174;28;20015;-78
2024/01/24 03:25:29;;;;;;;3.50;0.40;;;11.00;97.80;;;;;;4951253;28;20027;-77
2024/01/24 03:27:55;;;;;;;1.73;0.43;;;11.10;97.70;;;;;;4984738;28;20041;-78
2024/01/24 03:30:24;;;;;;;2.88;0.50;;;11.20;97.50;;;;;;4984835;28;20019;-77
2024/01/24 03:32:53;;;;;;;3.47;0.70;;;11.20;97.50;;;;;;4967190;28;20062;-76
2024/01/24 03:35:25;;;;;;;2.50;0.50;;;11.20;97.50;;;;;;4951983;28;20037;-78
2024/01/24 03:37:57;;;;;;;4.97;0.68;;;11.20;97.70;;;;;;4953848;28;20109;-76
2024/01/24 03:40:23;;;;;;;2.78;0.50;;;11.20;97.60;;;;;;4951630;28;20066;-79
2024/01/24 03:42:49;;;;;;;4.30;0.55;;;11.30;97.70;;;;;;4983391;28;20082;-76
2024/01/24 03:45:17;;;;;;;3.83;0.63;;;11.30;97.50;;;;;;4984248;28;20042;-77
2024/01/24 03:47:44;;;;;;;;;;;11.40;97.50;;;;;;4967694;28;20038;-77
2024/01/24 03:50:22;;;;;;;3.58;0.50;;;11.40;97.60;;;;;;4984327;28;19902;-77
2024/01/24 03:52:48;;;;;;;3.38;0.43;;;11.30;97.70;;;;;;4983053;28;20114;-77
2024/01/24 03:55:17;;;;;;;3.58;0.50;;;11.30;97.70;;;;;;4999406;28;20046;-76
2024/01/24 03:57:46;;;;;;;3.35;0.47;;;11.40;97.80;;;;;;4983972;28;20023;-81
2024/01/24 04:00:16;;;;;;;4.45;0.60;;;11.40;97.70;;;;;;4978561;28;20302;-78
2024/01/24 04:02:44;;;;;;;5.53;0.80;;;11.30;97.80;;;;;;4966308;28;20038;-79
2024/01/24 04:05:14;;;;;;;;;;;11.30;97.90;;;;;;4967795;28;20019;-78
2024/01/24 04:07:43;;;;;;;4.65;0.85;;;11.40;97.90;;;;;;4983731;28;19910;-78
2024/01/24 04:10:33;;;;;;;6.22;0.73;;;11.40;97.90;;;;;;4950996;28;20190;-77
2024/01/24 04:12:59;;;;;;;3.00;0.70;;;11.40;97.90;;;;;;4978438;28;20046;-78
2024/01/24 04:15:27;;;;;;;3.05;0.60;;;11.50;98.00;;;;;;4966850;28;20355;-77
2024/01/24 04:17:59;;;;;;;5.07;0.90;;;11.50;98.00;;;;;;4983670;28;20022;-77
2024/01/24 04:20:24;;;;;;;3.30;0.90;;;11.50;98.10;;;;;;4982493;28;20055;-76
2024/01/24 04:22:53;;;;;;;4.07;0.68;;;11.50;98.10;;;;;;4983415;28;20030;-76
2024/01/24 04:25:19;;;;;;;2.22;0.57;;;11.50;98.10;;;;;;4983947;28;20027;-78
2024/01/24 04:27:51;;;;;;;3.95;0.50;;;11.60;98.20;;;;;;4967132;28;20142;-77
2024/01/24 04:30:20;;;;;;;3.65;0.75;;;11.50;98.30;;;;;;4967022;28;20034;-77
2024/01/24 04:32:45;;;;;;;3.88;0.90;;;11.60;98.20;;;;;;4983451;28;20129;-79
2024/01/24 04:35:11;;;;;;;5.85;0.90;;;11.60;98.30;;;;;;4950619;28;20249;-75
2024/01/24 04:37:37;;;;;;;4.18;0.77;;;11.60;98.40;;;;;;4982576;28;20039;-76
2024/01/24 04:40:04;;;;;;;3.03;0.60;;;11.60;98.40;;;;;;4966177;28;20054;-77
2024/01/24 04:42:30;;;;;;;4.40;0.50;;;11.60;98.50;;;;;;4983463;28;20317;-77
2024/01/24 04:44:55;;;;;;;2.80;0.90;;;11.60;98.50;;;;;;4983606;28;20038;-78
2024/01/24 04:47:21;;;;;;;3.97;0.80;;;11.60;98.50;;;;;;4966359;28;20018;-76
2024/01/24 04:49:47;;;;;;;4.13;0.65;;;11.60;98.60;;;;;;4965751;28;20057;-76
2024/01/24 04:52:15;;;;;;;3.67;0.57;;;11.70;98.60;;;;;;4982782;28;20050;-78
2024/01/24 04:54:41;;;;;;;2.28;0.60;;;11.70;98.70;;;;;;4982787;28;20247;-75
2024/01/24 04:57:07;;;;;;;3.95;0.60;;;11.70;98.70;;;;;;4966035;28;20038;-77
2024/01/24 04:59:33;;;;;;;5.00;0.80;;;11.70;98.80;;;;;;4949710;28;20062;-78
2024/01/24 05:01:59;;;;;;;4.03;0.63;;;11.80;98.70;;;;;;4965465;28;20030;-79
2024/01/24 05:04:25;;;;;;;4.40;1.10;;;11.70;98.80;;;;;;4987290;28;20050;-76
2024/01/24 05:06:50;;;;;;;6.65;0.77;;;11.80;98.90;;;;;;4969703;28;20026;-78
2024/01/24 05:09:16;;;;;;;6.38;1.17;;;11.80;98.90;;;;;;4987422;28;20022;-78
2024/01/24 05:11:42;;;;;;;5.68;0.73;;;11.90;98.90;;;;;;4987006;28;20023;-76
2024/01/24 05:14:08;;;;;;;3.85;0.70;;;11.80;99.00;;;;;;4970286;28;20285;-76
2024/01/24 05:16:33;;;;;;;2.90;0.55;;;11.80;99.00;;;;;;4969267;28;20073;-77
2024/01/24 05:18:59;;;;;;;2.33;0.60;;;11.80;99.10;;;;;;4968389;28;20222;-78
2024/01/24 05:21:25;;;;;;;4.45;0.88;;;11.90;99.30;;;;;;4970083;28;20034;-76
2024/01/24 05:23:52;;;;;;;3.80;0.70;;;11.90;99.30;;;;;;4969799;28;20233;-76
2024/01/24 05:26:18;;;;;;;3.00;0.70;;;11.90;99.30;;;;;;4954059;28;20027;-79
2024/01/24 05:28:44;;;;;;;2.83;0.70;;;12.00;99.30;;;;;;4986640;28;20018;-76
2024/01/24 05:31:10;;;;;;;5.32;0.90;;;12.00;99.40;;;;;;4986949;28;20340;-77
2024/01/24 05:33:36;;;;;;;4.50;0.70;;;12.00;99.30;;;;;;4986722;28;20090;-77
2024/01/24 05:36:02;;;;;;;4.32;0.90;;;12.10;99.30;;;;;;4969841;28;20069;-78
2024/01/24 05:38:33;;;;;;;5.15;1.10;;;12.10;99.50;;;;;;4986139;28;20319;-80
2024/01/24 05:40:58;;;;;;;3.95;0.55;;;12.20;99.40;;;;;;4986179;28;20093;-78
2024/01/24 05:43:24;;;;;;;4.93;0.90;;;12.20;99.50;;;;;;4969607;28;20042;-77
2024/01/24 05:45:51;;;;;;;4.45;1.40;;;12.30;99.40;;;;;;4986223;28;20023;-77
2024/01/24 05:48:18;;;;;;;3.53;0.57;;;12.20;99.40;;;;;;4986311;28;20329;-77
2024/01/24 05:50:43;;;;;;;2.47;0.65;;;12.30;99.50;;;;;;4968797;28;20318;-76
2024/01/24 05:53:09;;;;;;;5.93;0.98;;;12.30;99.50;;;;;;4986781;28;20090;-76
2024/01/24 05:55:36;;;;;;;4.13;0.73;;;12.30;99.50;;;;;;4985881;28;20305;-79
2024/01/24 05:58:02;;;;;;;4.13;0.70;;;12.40;99.50;;;;;;4968586;28;20105;-77
2024/01/24 06:00:28;;;;;;;4.07;0.70;;;12.40;99.60;;;;;;4985777;28;20474;-79
2024/01/24 06:03:01;;;;;;;2.45;0.60;;;12.50;99.60;;;;;;4969399;28;20178;-80
2024/01/24 06:05:26;;;;;;;3.25;0.60;;;12.50;99.70;;;;;;4953515;28;20030;-78
2024/01/24 06:07:52;;;;;;;4.25;0.68;;;12.50;99.80;;;;;;4985939;28;20022;-77
2024/01/24 06:10:18;;;;;;;2.47;0.50;;;12.50;99.90;;;;;;4969398;28;20058;-75
2024/01/24 06:12:44;;;;;;;2.10;0.50;;;12.50;99.90;;;;;;4986115;28;20265;-78
2024/01/24 06:15:10;;;;;;;2.75;0.60;;;12.50;99.90;;;;;;4985224;28;20023;-78
2024/01/24 06:17:35;;;;;;;5.50;0.70;;;12.50;99.90;;;;;;4985880;28;20047;-77
2024/01/24 06:20:01;;;;;;;1.67;0.40;;;12.50;99.90;;;;;;4969020;28;20027;-76
2024/01/24 06:22:27;;;;;;;3.13;0.63;;;12.60;99.90;;;;;;4986204;28;20062;-76
2024/01/24 06:24:52;;;;;;;2.10;0.60;;;12.60;99.90;;;;;;4968364;28;20035;-76
2024/01/24 06:27:21;;;;;;;1.90;0.60;;;12.60;99.90;;;;;;4969116;28;20314;-78
2024/01/24 06:29:52;;;;;;;3.65;0.40;;;12.60;99.90;;;;;;4986036;28;20057;-77
2024/01/24 06:32:18;;;;;;;2.30;0.60;;;12.70;99.90;;;;;;4968364;28;20031;-77
2024/01/24 06:34:44;;;;;;;1.55;0.45;;;12.60;99.90;;;;;;4985056;28;20198;-78
2024/01/24 06:37:09;;;;;;;2.90;0.50;;;12.60;99.90;;;;;;4985707;28;20034;-78
2024/01/24 06:39:41;;;;;;;2.13;0.40;;;12.60;99.90;;;;;;4984976;28;20023;-79
2024/01/24 06:42:10;;;;;;;2.55;0.50;;;12.60;99.90;;;;;;4968634;28;20229;-78
2024/01/24 06:44:36;;;;;;;1.08;0.40;;;12.60;99.90;;;;;;4985382;28;20055;-79
2024/01/24 06:47:08;;;;;;;3.03;0.52;;;12.70;99.90;;;;;;4952331;28;20031;-78
2024/01/24 06:49:33;;;;;;;1.73;0.43;;;12.70;99.90;;;;;;4950619;28;20019;-77
2024/01/24 06:51:59;;;;;;;1.70;0.40;;;12.70;99.90;;;;;;4984395;28;20074;-77
2024/01/24 06:54:25;;;;;;;2.75;0.50;;;12.70;99.90;;;;;;4985182;28;20146;-78
2024/01/24 06:56:51;;;;;;;1.55;0.40;;;12.70;99.90;;;;;;4984249;28;20026;-78
2024/01/24 06:59:23;;;;;;;2.53;0.45;;;12.60;99.90;;;;;;4948917;29;20102;-78
2024/01/24 07:01:52;;;;;;;2.83;0.40;;;12.50;99.90;;;;;;4953311;28;20147;-78
2024/01/24 07:04:18;;;;;;;2.38;0.60;;;12.40;99.90;;;;;;4968375;28;20042;-77
2024/01/24 07:06:45;;;;;;;4.27;0.60;;;12.40;99.90;;;;;;4985223;28;20027;-76
2024/01/24 07:09:35;;;;;;;2.75;0.52;;;12.40;99.90;;;;;;4952123;28;20105;-78
2024/01/24 07:12:08;;;;;;;1.75;0.50;;;12.50;99.90;;;;;;4967678;28;20027;-80
2024/01/24 07:14:34;;;;;;;3.60;0.80;;;12.50;99.90;;;;;;4967313;28;20035;-77
2024/01/24 07:17:00;;;;;;;2.55;0.47;;;12.60;99.90;;;;;;4951997;28;20019;-77
2024/01/24 07:19:26;;;;;;;1.85;0.40;;;12.60;99.90;;;;;;4983606;28;20089;-77
2024/01/24 07:21:51;;;;;;;3.08;0.68;;;12.60;99.90;;;;;;4983020;28;20034;-77
2024/01/24 07:24:34;;;;;;;2.55;0.40;;;12.70;99.90;;;;;;4963704;29;20167;-75
2024/01/24 07:26:59;;;;;;;2.00;0.63;;;12.70;99.90;;;;;;4959792;28;20308;-78
2024/01/24 07:29:28;;;;;;;1.77;0.50;;;12.70;99.90;;;;;;4967411;28;20033;-77
2024/01/24 07:31:54;;;;;;;1.90;0.40;;;12.70;99.90;;;;;;4983424;28;20015;-79
2024/01/24 07:34:20;;;;;;;2.22;0.43;;;12.80;99.90;;;;;;4984507;28;20046;-79
2024/01/24 07:36:48;;;;;;;2.42;0.50;;;12.80;99.90;;;;;;4984209;28;20046;-77
2024/01/24 07:39:14;;;;;;;2.30;0.47;;;12.80;99.90;;;;;;4969541;28;20038;-77
2024/01/24 07:41:43;;;;;;;2.03;0.40;;;12.90;99.90;;;;;;4985369;28;20261;-80
2024/01/24 07:44:34;;;;;;;1.83;0.50;;;12.90;99.90;;;;;;4990324;28;20057;-78
2024/01/24 07:47:01;;;;;;;1.95;0.50;;;12.90;99.90;;;;;;5002666;28;20026;-77
2024/01/24 07:49:30;;;;;;;2.80;0.40;;;12.90;99.90;;;;;;5003549;28;20034;-75
2024/01/24 07:51:55;;;;;;;1.15;0.45;;;12.90;99.90;;;;;;5003814;28;20098;-78
2024/01/24 07:54:27;;;;;;;2.08;0.30;;;12.90;99.90;;;;;;5003799;28;20026;-79
2024/01/24 07:56:56;;;;;;;1.83;0.30;;;13.00;99.90;;;;;;5003279;28;20057;-77
2024/01/24 07:59:22;;;;;;;1.27;0.40;;;13.10;99.90;;;;;;5003987;28;20030;-77
2024/01/24 08:01:51;;;;;;;3.65;0.50;;;13.10;99.90;;;;;;5002836;28;20269;-77
2024/01/24 08:04:17;;;;;;;2.95;0.55;;;13.20;99.90;;;;;;5003184;28;20065;-78
2024/01/24 08:06:45;;;;;;;1.02;0.35;;;13.20;99.90;;;;;;5003478;28;20050;-75
2024/01/24 08:09:11;;;;;;;1.38;0.43;;;13.30;99.90;;;;;;5004112;28;20030;-77
2024/01/24 08:11:43;;;;;;;1.25;0.35;;;13.30;99.90;;;;;;5002828;28;20026;-79
2024/01/24 08:14:09;;;;;;;1.38;0.28;;;13.30;99.90;;;;;;5003296;28;20030;-77
2024/01/24 08:16:57;;;;;;;1.58;0.30;;;13.40;99.90;;;;;;4985235;28;20325;-77
2024/01/24 08:19:23;;;;;;;1.02;0.30;;;13.40;99.90;;;;;;4985694;28;20257;-75
2024/01/24 08:21:49;;;;;;;1.83;0.30;;;13.50;99.90;;;;;;4984542;28;20042;-80
2024/01/24 08:24:16;;;;;;;1.02;0.30;;;13.50;99.90;;;;;;5002957;28;20069;-76
2024/01/24 08:26:41;;;;;;;1.40;0.28;;;13.60;99.90;;;;;;5002654;28;20312;-78
2024/01/24 08:29:07;;;;;;;1.30;0.30;;;13.60;99.90;;;;;;5002150;28;20088;-75
2024/01/24 08:31:38;;;;;;;1.02;0.30;;;13.70;99.90;;;;;;5002833;28;20041;-77
2024/01/24 08:34:04;;;;;;;1.05;0.20;;;13.70;99.90;;;;;;5002877;28;20030;-76
2024/01/24 08:36:29;;;;;;;1.17;0.22;;;13.70;99.90;;;;;;5002790;28;20186;-77
2024/01/24 08:39:02;;;;;;;1.17;0.10;;;13.70;99.90;;;;;;4985144;28;20024;-77
2024/01/24 08:41:33;;;;;;;0.88;0.20;;;13.70;99.90;;;;;;4981279;28;20112;-79
2024/01/24 08:43:59;;;;;;;0.65;0.20;;;13.70;99.90;;;;;;4983196;28;20034;-81
2024/01/24 08:46:25;;;;;;;1.88;0.20;;;13.70;99.90;;;;;;4983610;28;20019;-76
2024/01/24 08:48:53;;;;;;;0.85;0.10;;;13.80;99.90;;;;;;4982015;28;20066;-78
2024/01/24 08:51:21;;;;;;;2.28;0.38;;;13.80;99.90;;;;;;4966339;28;20091;-77
2024/01/24 08:53:46;;;;;;;1.00;0.10;;;13.80;99.90;;;;;;4965927;28;20026;-78
2024/01/24 08:56:13;;;;;;;0.77;0.10;;;13.80;99.90;;;;;;4983125;28;20034;-80
2024/01/24 08:58:39;;;;;;;0.65;0.10;;;13.90;99.90;;;;;;4965698;28;20031;-78
2024/01/24 09:01:06;;;;;;;1.63;0.13;;;13.90;99.90;;;;;;4983762;28;20027;-79
2024/01/24 09:03:33;;;;;;;0.70;0.20;;;13.90;99.90;;;;;;4982735;28;20027;-80
2024/01/24 09:05:58;;;;;;;1.10;0.13;;;13.90;99.90;;;;;;4977556;28;20078;-79
2024/01/24 09:08:25;;;;;;;1.17;0.20;;;13.90;99.90;;;;;;4964927;28;20019;-79
2024/01/24 09:10:54;;;;;;;0.35;0.10;;;14.00;99.90;;;;;;4983051;28;20099;-78
2024/01/24 09:13:22;;;;;;;0.38;0.15;;;13.90;99.90;;;;;;4965861;28;20026;-78
2024/01/24 09:15:53;;;;;;;0.70;0.10;;;14.00;99.90;;;;;;4982480;28;20076;-79
2024/01/24 09:18:22;;;;;;;0.50;0.10;;;14.00;99.90;;;;;;4983206;28;20390;-80
2024/01/24 09:20:48;;;;;;;0.70;0.10;;;14.10;99.90;;;;;;4981657;28;20051;-77
2024/01/24 09:23:17;;;;;;;0.68;0.10;;;14.00;99.90;;;;;;4965519;28;20018;-78
2024/01/24 09:25:51;;;;;;;0.60;0.10;;;14.10;99.90;;;;;;4982632;28;20054;-79
2024/01/24 09:28:20;;;;;;;0.50;0.10;;;14.10;99.90;;;;;;4981894;28;20042;-78
2024/01/24 09:30:52;;;;;;;0.95;0.10;;;14.10;99.90;;;;;;4983039;28;20030;-79
2024/01/24 09:33:20;;;;;;;0.52;0.10;;;14.10;99.90;;;;;;4949972;28;20049;-80
2024/01/24 09:35:55;;;;;;;0.52;0.10;;;14.10;99.90;;;;;;4982636;28;20035;-79
2024/01/24 09:38:21;;;;;;;0.63;0.10;;;14.10;99.90;;;;;;4983139;28;20045;-75
2024/01/24 09:40:52;;;;;;;1.50;0.10;;;14.10;99.90;;;;;;4991669;28;20046;-80
2024/01/24 09:43:29;;;;;;;0.50;0.10;;;14.00;99.90;;;;;;4985569;28;20019;-80
2024/01/24 09:46:09;;;;;;;0.80;0.10;;;14.00;99.90;;;;;;4985346;28;20057;-78
2024/01/24 09:48:41;;;;;;;9.38;0.52;;;14.00;99.90;;;;;;4985275;28;20294;-78
2024/01/24 09:51:22;;;;;;;0.75;0.10;;;13.90;99.90;;;;;;5006498;28;20026;-79
2024/01/24 09:53:50;;;;;;;0.55;0.15;;;13.90;99.90;;;;;;5005640;28;20252;-78
2024/01/24 09:56:18;;;;;;;0.95;0.20;;;13.90;99.90;;;;;;5005720;28;20209;-79
2024/01/24 09:58:44;;;;;;;1.13;0.20;;;13.90;99.90;;;;;;5005444;28;20085;-77
2024/01/24 10:01:16;;;;;;;0.68;0.10;;;13.90;99.90;;;;;;4999127;28;20118;-79
2024/01/24 10:03:43;;;;;;;1.50;0.10;;;14.10;99.90;;;;;;4987817;28;20025;-78
2024/01/24 10:06:12;;;;;;;0.63;0.10;;;14.10;99.90;;;;;;4971783;28;20241;-78
2024/01/24 10:08:41;;;;;;;0.63;0.15;;;14.10;99.90;;;;;;4988041;28;20018;-77
2024/01/24 10:11:09;;;;;;;0.40;0.13;;;14.10;99.90;;;;;;5005955;28;20049;-80
2024/01/24 10:13:36;;;;;;;;;;;14.10;99.90;;;;;;5005703;28;20092;-80
2024/01/24 10:16:05;;;;;;;0.28;0.08;;;14.20;99.90;;;;;;4988705;28;19984;-79
2024/01/24 10:18:34;;;;;;;0.50;0.10;;;14.20;99.90;;;;;;4988320;28;20030;-78
2024/01/24 10:21:03;;;;;;;1.25;0.10;;;14.20;99.90;;;;;;4972275;28;20040;-78
2024/01/24 10:23:38;;;;;;;0.40;0.10;;;14.20;99.90;;;;;;4971141;28;20087;-79
2024/01/24 10:26:04;;;;;;;0.20;0.10;;;14.30;99.90;;;;;;5008015;28;20057;-80
2024/01/24 10:28:33;;;;;;;0.43;0.15;;;14.30;99.90;;;;;;4987640;28;20030;-78
2024/01/24 10:31:17;;;;;;;0.40;0.00;;;14.40;99.90;;;;;;5005818;28;20297;-78
2024/01/24 10:33:42;;;;;;;0.30;0.08;;;14.30;99.90;;;;;;5005095;28;20037;-77
2024/01/24 10:36:10;;;;;;;0.77;0.10;;;14.40;99.90;;;;;;5005321;28;20030;-78
2024/01/24 10:38:48;;;;;;;0.70;0.20;;;14.50;99.90;;;;;;4987692;28;20317;-79
2024/01/24 10:41:15;;;;;;;0.47;0.10;;;14.50;99.90;;;;;;5001307;28;20041;-78
2024/01/24 10:43:50;;;;;;;0.47;0.10;;;14.60;99.90;;;;;;4991048;28;20034;-78
2024/01/24 10:46:22;;;;;;;0.40;0.10;;;14.60;99.90;;;;;;5005463;28;20030;-82
2024/01/24 10:49:12;;;;;;;0.35;0.10;;;14.70;99.90;;;;;;4987348;28;20379;-78
2024/01/24 10:51:47;;;;;;;0.85;0.20;;;14.80;99.80;;;;;;4987365;28;20045;-79
2024/01/24 10:54:21;;;;;;;0.20;0.00;;;14.80;99.70;;;;;;4988205;28;20042;-78
2024/01/24 10:56:50;;;;;;;0.20;0.10;;;15.00;99.60;;;;;;4987821;28;20098;-79
2024/01/24 10:59:23;;;;;;;0.55;0.10;;;15.20;99.30;;;;;;5004751;28;20038;-78
2024/01/24 11:01:49;;;;;;;0.45;0.10;;;15.30;98.90;;;;;;4980717;28;20109;-78
2024/01/24 11:04:24;;;;;;;0.47;0.10;;;15.20;98.90;;;;;;5004921;28;20026;-78
2024/01/24 11:07:06;;;;;;;0.30;0.10;;;15.10;99.10;;;;;;4986998;28;20022;-79
2024/01/24 11:09:55;;;;;;;0.10;0.00;;;14.90;99.90;;;;;;4987134;28;20034;-77
2024/01/24 11:12:25;;;;;;;0.82;0.10;;;14.50;99.90;;;;;;4971313;28;20027;-78
2024/01/24 11:14:52;;;;;;;0.57;0.10;;;14.10;99.90;;;;;;4986948;28;20030;-79
2024/01/24 11:17:46;;;;;;;0.95;0.20;;;13.90;99.90;;;;;;4982035;28;20072;-76
2024/01/24 11:20:19;;;;;;;0.57;0.20;;;13.80;99.90;;;;;;5004680;28;20089;-78
2024/01/24 11:22:49;;;;;;;1.10;0.10;;;13.60;99.90;;;;;;4986989;28;20030;-78
2024/01/24 11:25:45;;;;;;;1.05;0.20;;;13.30;99.90;;;;;;4986592;28;20161;-80
2024/01/24 11:28:24;;;;;;;0.98;0.30;;;13.10;99.90;;;;;;4987114;28;20030;-78
2024/01/24 11:30:56;;;;;;;1.02;0.20;;;12.90;99.90;;;;;;5002926;28;20056;-78
2024/01/24 11:33:23;;;;;;;1.80;0.22;;;12.90;99.90;;;;;;4979997;28;20029;-81
2024/01/24 11:35:51;;;;;;;2.17;0.30;;;12.90;99.90;;;;;;4973685;28;20033;-80
2024/01/24 11:39:06;;;;;;;1.17;0.20;;;12.90;99.90;;;;;;5003629;28;20060;-81
2024/01/24 11:45:37;;;;;;;0.90;0.10;;;13.10;99.90;;;;;;4944120;28;20266;-81
2024/01/24 11:48:11;;;;;;;0.93;0.22;;;13.30;99.90;;;;;;4928730;29;20083;-80
2024/01/24 11:50:37;;;;;;;1.33;0.47;;;13.40;99.90;;;;;;4943678;29;20132;-80
2024/01/24 11:53:04;;;;;;;1.02;0.25;;;13.40;99.90;;;;;;4928535;29;20223;-80
2024/01/24 11:55:33;;;;;;;0.70;0.30;;;13.40;99.90;;;;;;4926960;29;20030;-83
2024/01/24 11:58:23;;;;;;;2.22;0.43;;;13.40;99.90;;;;;;4944263;29;20326;-79
2024/01/24 12:01:17;;;;;;;1.20;0.40;;;13.40;99.90;;;;;;4942991;29;20373;-79
2024/01/24 12:04:57;;;;;;;1.30;0.30;;;13.50;99.90;;;;;;4927936;29;20027;-79
2024/01/24 12:07:32;;;;;;;1.27;0.20;;;13.50;99.90;;;;;;4943221;29;20257;-79
2024/01/24 12:10:11;;;;;;;;;;;;;;;;;;;;;
2024/01/24 12:13:36;;;;;;;1.33;0.50;;;13.80;99.90;;;;;;4930816;29;20034;-79
2024/01/24 12:16:36;;;;;;;2.47;0.50;;;14.00;99.90;;;;;;4928405;29;20361;-76
2024/01/24 12:19:23;;;;;;;2.45;0.20;;;14.00;99.90;;;;;;4955002;29;20271;-78
2024/01/24 12:21:48;;;;;;;2.85;0.30;;;14.00;99.90;;;;;;4962464;29;20047;-78
2024/01/24 12:24:23;;;;;;;2.45;0.40;;;14.00;99.90;;;;;;4951432;28;20042;-78
2024/01/24 12:27:10;;;;;;;1.13;0.20;;;14.00;99.90;;;;;;4968586;28;20070;-76
2024/01/24 12:29:41;;;;;;;4.10;0.45;;;13.90;99.90;;;;;;4948827;28;20038;-78
2024/01/24 12:32:23;;;;;;;2.58;0.30;;;13.90;99.90;;;;;;4965940;28;20349;-79
2024/01/24 12:34:49;;;;;;;3.90;0.40;;;14.10;99.90;;;;;;4958661;29;20270;-79
2024/01/24 12:37:32;;;;;;;2.22;0.30;;;14.10;99.90;;;;;;4952119;28;20038;-77
2024/01/24 12:40:07;;;;;;;1.98;0.30;;;14.10;99.90;;;;;;4984958;28;20042;-74
2024/01/24 12:42:40;;;;;;;1.65;0.30;;;14.00;99.90;;;;;;4945923;28;20345;-76
2024/01/24 12:45:19;;;;;;;2.28;0.22;;;14.10;99.90;;;;;;4962182;28;20049;-74
2024/01/24 12:47:45;;;;;;;2.63;0.50;;;14.20;99.30;;;;;;4982995;28;20023;-75
2024/01/24 12:50:30;;;;;;;1.15;0.20;;;14.30;99.30;;;;;;4979246;28;20023;-74
2024/01/24 12:52:56;;;;;;;2.28;0.30;;;14.60;98.50;;;;;;4959372;28;20034;-74
2024/01/24 12:55:21;;;;;;;3.25;0.30;;;14.90;97.40;;;;;;4946043;29;20031;-76
2024/01/24 12:57:47;;;;;;;3.85;0.30;;;15.00;95.80;;;;;;4975920;28;20333;-76
2024/01/24 13:00:16;;;;;;;3.45;0.57;;;15.00;95.70;;;;;;4983039;28;20026;-77
2024/01/24 13:02:42;;;;;;;2.00;0.40;;;15.20;95.40;;;;;;4965644;28;20107;-74
2024/01/24 13:05:33;;;;;;;2.38;0.50;;;15.40;94.50;;;;;;4981987;28;20029;-74
2024/01/24 13:07:59;;;;;;;1.40;0.25;;;15.20;93.80;;;;;;4982239;28;20328;-75